createdAt,value
2022-09-17T00:01:14.687Z,63.11
2022-09-17T00:03:41.444Z,62.79
2022-09-17T00:06:12.837Z,63.59
2022-09-17T00:08:43.052Z,64.66
2022-09-17T00:11:15.429Z,63.67
2022-09-17T00:13:43.975Z,63.58
2022-09-17T00:16:12.417Z,63.07
2022-09-17T00:18:41.974Z,62.45
2022-09-17T00:21:17.482Z,62.82
2022-09-17T00:23:47.198Z,63.03
2022-09-17T00:26:14.018Z,62.59
2022-09-17T00:28:42.088Z,61.91
2022-09-17T00:31:09.361Z,61.94
2022-09-17T00:33:37.196Z,61.63
2022-09-17T00:36:05.301Z,61.72
2022-09-17T00:38:32.872Z,60.96
2022-09-17T00:41:00.054Z,60.90
2022-09-17T00:43:46.446Z,60.40
2022-09-17T00:46:25.424Z,60.36
2022-09-17T00:48:59.051Z,61.12
2022-09-17T00:51:33.117Z,61.25
2022-09-17T00:54:01.987Z,61.04
2022-09-17T00:56:33.328Z,61.21
2022-09-17T00:59:01.812Z,61.41
2022-09-17T01:01:29.000Z,61.53
2022-09-17T01:03:55.986Z,61.72
2022-09-17T01:06:34.613Z,61.96
2022-09-17T01:09:32.182Z,61.88
2022-09-17T01:12:14.007Z,61.85
2022-09-17T01:15:18.518Z,61.47
2022-09-17T01:17:59.751Z,61.56
2022-09-17T01:20:51.171Z,62.02
2022-09-17T01:23:52.305Z,61.99
2022-09-17T01:26:35.743Z,61.83
2022-09-17T01:29:14.323Z,61.86
2022-09-17T01:32:05.518Z,63.03
2022-09-17T01:34:41.342Z,63.10
2022-09-17T01:37:30.731Z,63.53
2022-09-17T01:40:45.327Z,63.81
2022-09-17T01:43:34.361Z,64.11
2022-09-17T01:46:21.820Z,63.30
2022-09-17T01:48:52.318Z,63.09
2022-09-17T01:51:26.367Z,64.11
2022-09-17T01:54:05.056Z,64.59
2022-09-17T01:56:37.355Z,64.19
2022-09-17T01:59:17.098Z,63.88
2022-09-17T02:01:48.029Z,63.75
2022-09-17T02:04:38.943Z,63.89
2022-09-17T02:07:13.497Z,64.65
2022-09-17T02:09:53.685Z,64.96
2022-09-17T02:12:28.459Z,64.77
2022-09-17T02:14:59.238Z,65.43
2022-09-17T02:17:38.323Z,65.18
2022-09-17T02:20:07.388Z,64.86
2022-09-17T02:22:37.096Z,64.72
2022-09-17T02:25:22.437Z,64.69
2022-09-17T02:27:58.554Z,65.20
2022-09-17T02:30:28.178Z,65.03
2022-09-17T02:32:55.641Z,65.18
2022-09-17T02:35:22.787Z,65.17
2022-09-17T02:37:50.085Z,65.14
2022-09-17T02:40:24.333Z,65.24
2022-09-17T02:43:24.263Z,65.34
2022-09-17T02:46:19.366Z,65.10
2022-09-17T02:49:04.661Z,65.76
2022-09-17T02:51:54.648Z,65.71
2022-09-17T02:54:30.489Z,65.80
2022-09-17T02:57:13.588Z,65.93
2022-09-17T03:00:17.520Z,66.66
2022-09-17T03:02:50.337Z,66.59
2022-09-17T03:05:21.952Z,66.71
2022-09-17T03:07:49.148Z,66.53
2022-09-17T03:10:16.228Z,66.73
2022-09-17T03:12:43.468Z,66.44
2022-09-17T03:15:10.504Z,66.72
2022-09-17T03:17:40.608Z,67.62
2022-09-17T03:20:08.251Z,68.22
2022-09-17T03:22:35.945Z,68.44
2022-09-17T03:25:05.170Z,68.69
2022-09-17T03:27:32.134Z,68.59
2022-09-17T03:29:59.392Z,68.20
2022-09-17T03:32:26.457Z,68.59
2022-09-17T03:34:56.217Z,67.82
2022-09-17T03:37:23.265Z,67.99
2022-09-17T03:39:50.002Z,68.04
2022-09-17T03:42:17.239Z,67.41
2022-09-17T03:44:45.502Z,67.22
2022-09-17T03:47:17.168Z,67.16
2022-09-17T03:49:43.987Z,67.36
2022-09-17T03:52:10.950Z,66.67
2022-09-17T03:54:37.810Z,66.55
2022-09-17T03:57:04.659Z,66.72
2022-09-17T03:59:32.123Z,67.31
2022-09-17T04:01:58.973Z,67.48
2022-09-17T04:04:26.155Z,68.03
2022-09-17T04:06:52.896Z,67.96
2022-09-17T04:09:19.918Z,67.93
2022-09-17T04:11:46.679Z,67.36
2022-09-17T04:14:13.548Z,67.69
2022-09-17T04:16:40.217Z,68.12
2022-09-17T04:19:07.425Z,67.97
2022-09-17T04:21:34.099Z,68.52
2022-09-17T04:24:01.310Z,69.40
2022-09-17T04:26:28.109Z,69.89
2022-09-17T04:28:54.984Z,69.75
2022-09-17T04:31:22.793Z,69.52
2022-09-17T04:33:49.805Z,69.40
2022-09-17T04:36:17.019Z,69.21
2022-09-17T04:38:43.868Z,69.25
2022-09-17T04:41:10.552Z,69.41
2022-09-17T04:43:37.719Z,69.33
2022-09-17T04:46:04.807Z,69.84
2022-09-17T04:48:31.905Z,69.90
2022-09-17T04:50:58.625Z,70.14
2022-09-17T04:53:25.575Z,70.42
2022-09-17T04:55:52.327Z,70.76
2022-09-17T04:58:19.131Z,70.64
2022-09-17T05:00:46.284Z,70.25
2022-09-17T05:03:13.036Z,70.31
2022-09-17T05:05:41.088Z,70.53
2022-09-17T05:08:08.585Z,70.61
2022-09-17T05:10:35.594Z,70.80
2022-09-17T05:13:02.422Z,72.27
2022-09-17T05:15:29.265Z,72.77
2022-09-17T05:17:55.998Z,72.57
2022-09-17T05:20:23.172Z,72.44
2022-09-17T05:22:51.942Z,72.54
2022-09-17T05:25:24.265Z,72.42
2022-09-17T05:27:52.754Z,72.13
2022-09-17T05:30:20.317Z,71.77
2022-09-17T05:32:47.298Z,71.73
2022-09-17T05:35:14.660Z,71.93
2022-09-17T05:37:41.521Z,71.86
2022-09-17T05:40:09.493Z,71.92
2022-09-17T05:42:36.476Z,71.97
2022-09-17T05:45:04.124Z,72.19
2022-09-17T05:47:31.044Z,71.89
2022-09-17T05:49:58.032Z,71.53
2022-09-17T05:52:28.232Z,72.61
2022-09-17T05:54:56.142Z,73.01
2022-09-17T05:57:23.104Z,73.69
2022-09-17T05:59:50.142Z,73.75
2022-09-17T06:02:16.982Z,73.22
2022-09-17T06:04:43.984Z,72.70
2022-09-17T06:07:10.736Z,73.16
2022-09-17T06:09:38.067Z,72.84
2022-09-17T06:12:05.670Z,72.39
2022-09-17T06:14:32.814Z,72.49
2022-09-17T06:17:00.334Z,72.52
2022-09-17T06:19:28.547Z,72.13
2022-09-17T06:21:55.765Z,71.47
2022-09-17T06:24:22.608Z,71.14
2022-09-17T06:26:49.634Z,70.86
2022-09-17T06:29:16.294Z,70.18
2022-09-17T06:31:46.540Z,70.09
2022-09-17T06:34:13.352Z,70.25
2022-09-17T06:36:40.527Z,70.16
2022-09-17T06:39:07.833Z,69.98
2022-09-17T06:41:34.880Z,69.87
2022-09-17T06:44:04.934Z,69.63
2022-09-17T06:46:31.759Z,69.68
2022-09-17T06:48:59.019Z,69.92
2022-09-17T06:51:25.849Z,69.86
2022-09-17T06:53:52.595Z,69.32
2022-09-17T06:56:19.506Z,68.61
2022-09-17T06:58:47.019Z,69.45
2022-09-17T07:01:14.355Z,69.81
2022-09-17T07:03:43.477Z,69.75
2022-09-17T07:06:11.529Z,69.62
2022-09-17T07:08:39.572Z,70.25
2022-09-17T07:11:08.150Z,70.98
2022-09-17T07:13:35.646Z,74.19
2022-09-17T07:16:03.839Z,76.06
2022-09-17T07:18:31.322Z,76.99
2022-09-17T07:21:02.584Z,77.69
2022-09-17T07:23:32.088Z,78.21
2022-09-17T07:26:01.065Z,77.40
2022-09-17T07:28:28.980Z,78.31
2022-09-17T07:30:56.653Z,79.54
2022-09-17T07:33:28.206Z,79.57
2022-09-17T07:35:57.082Z,80.34
2022-09-17T07:38:24.932Z,79.90
2022-09-17T07:41:16.241Z,79.31
2022-09-17T07:43:43.843Z,79.00
2022-09-17T07:46:16.184Z,79.57
2022-09-17T07:48:43.251Z,79.92
2022-09-17T07:51:19.125Z,79.86
2022-09-17T07:53:47.945Z,79.95
2022-09-17T07:56:14.925Z,79.50
2022-09-17T07:58:43.448Z,79.42
2022-09-17T08:01:12.592Z,78.95
2022-09-17T08:03:40.228Z,77.63
2022-09-17T08:06:08.509Z,76.25
2022-09-17T08:08:36.677Z,75.58
2022-09-17T08:11:08.336Z,75.35
2022-09-17T08:13:35.511Z,76.16
2022-09-17T08:16:07.178Z,77.73
2022-09-17T08:18:35.737Z,77.88
2022-09-17T08:21:04.592Z,77.46
2022-09-17T08:23:34.592Z,77.66
2022-09-17T08:26:02.036Z,77.90
2022-09-17T08:28:31.234Z,77.95
2022-09-17T08:31:03.316Z,77.89
2022-09-17T08:33:35.246Z,78.13
2022-09-17T08:36:02.596Z,76.97
2022-09-17T08:38:38.276Z,76.58
2022-09-17T08:41:11.539Z,74.20
2022-09-17T08:43:50.511Z,72.51
2022-09-17T08:46:17.308Z,70.78
2022-09-17T08:49:25.755Z,69.59
2022-09-17T08:52:10.169Z,67.62
2022-09-17T08:54:50.440Z,66.22
2022-09-17T08:57:27.014Z,66.87
2022-09-17T09:00:15.285Z,69.56
2022-09-17T09:03:11.661Z,70.33
2022-09-17T09:05:50.662Z,69.92
2022-09-17T09:08:34.052Z,69.92
2022-09-17T09:11:15.515Z,69.80
2022-09-17T09:13:50.274Z,71.31
2022-09-17T09:16:33.122Z,68.08
2022-09-17T09:19:22.006Z,67.91
2022-09-17T09:22:33.523Z,67.06
2022-09-17T09:25:12.459Z,67.02
2022-09-17T09:27:52.305Z,67.04
2022-09-17T09:30:23.810Z,65.37
2022-09-17T09:32:59.665Z,64.58
2022-09-17T09:35:29.130Z,64.67
2022-09-17T09:38:12.179Z,65.65
2022-09-17T09:40:48.832Z,66.42
2022-09-17T09:44:02.541Z,67.55
2022-09-17T09:46:39.163Z,67.35
2022-09-17T09:49:28.304Z,66.88
2022-09-17T09:52:35.263Z,65.25
2022-09-17T09:55:22.291Z,65.27
2022-09-17T09:58:03.624Z,64.16
2022-09-17T10:00:42.885Z,63.82
2022-09-17T10:03:20.451Z,63.07
2022-09-17T10:06:05.287Z,64.33
2022-09-17T10:08:35.588Z,64.49
2022-09-17T10:11:05.749Z,63.59
2022-09-17T10:13:38.397Z,63.62
2022-09-17T10:16:20.072Z,62.56
2022-09-17T10:19:13.426Z,61.51
2022-09-17T10:21:42.759Z,60.64
2022-09-17T10:24:26.999Z,63.02
2022-09-17T10:27:02.827Z,65.08
2022-09-17T10:29:30.484Z,65.74
2022-09-17T10:32:00.427Z,67.68
2022-09-17T10:34:30.261Z,70.26
2022-09-17T10:36:58.614Z,70.54
2022-09-17T10:39:25.405Z,70.47
2022-09-17T10:41:57.971Z,71.44
2022-09-17T10:44:27.256Z,70.73
2022-09-17T10:46:56.261Z,69.71
2022-09-17T10:49:37.177Z,69.03
2022-09-17T10:52:10.859Z,66.70
2022-09-17T10:54:58.582Z,68.83
2022-09-17T10:57:37.485Z,70.10
2022-09-17T11:00:17.240Z,70.47
2022-09-17T11:03:06.016Z,70.58
2022-09-17T11:05:45.817Z,70.08
2022-09-17T11:08:39.026Z,71.47
2022-09-17T11:11:24.170Z,71.09
2022-09-17T11:14:12.761Z,70.26
2022-09-17T11:16:45.246Z,69.51
2022-09-17T11:19:22.717Z,70.13
2022-09-17T11:22:03.068Z,69.38
2022-09-17T11:24:51.612Z,69.22
2022-09-17T11:27:53.723Z,69.87
2022-09-17T11:30:28.939Z,68.73
2022-09-17T11:33:26.324Z,67.49
2022-09-17T11:36:01.132Z,66.14
2022-09-17T11:38:41.453Z,64.09
2022-09-17T11:41:16.755Z,63.57
2022-09-17T11:43:50.763Z,63.95
2022-09-17T11:46:41.428Z,63.49
2022-09-17T11:49:34.034Z,62.82
2022-09-17T11:52:09.951Z,63.64
2022-09-17T11:54:49.532Z,62.90
2022-09-17T11:57:39.019Z,62.24
2022-09-17T12:00:20.423Z,61.74
2022-09-17T12:03:14.290Z,62.42
2022-09-17T12:05:49.512Z,61.58
2022-09-17T12:08:40.188Z,60.28
2022-09-17T12:11:14.711Z,59.66
2022-09-17T12:13:49.720Z,60.02
2022-09-17T12:16:46.547Z,61.38
2022-09-17T12:19:31.935Z,59.89
2022-09-17T12:22:11.011Z,61.68
2022-09-17T12:24:38.840Z,60.08
2022-09-17T12:27:18.921Z,60.33
2022-09-17T12:30:20.483Z,59.73
2022-09-17T12:33:01.379Z,59.27
2022-09-17T12:36:04.164Z,59.10
2022-09-17T12:38:44.225Z,58.94
2022-09-17T12:41:32.245Z,57.33
2022-09-17T12:44:05.067Z,57.08
2022-09-17T12:46:59.304Z,57.28
2022-09-17T12:49:38.095Z,57.22
2022-09-17T12:52:19.804Z,58.49
2022-09-17T12:55:07.736Z,57.93
2022-09-17T12:58:24.936Z,57.89
2022-09-17T13:00:59.627Z,56.88
2022-09-17T13:03:42.009Z,57.28
2022-09-17T13:06:35.867Z,55.72
2022-09-17T13:09:15.554Z,55.94
2022-09-17T13:12:11.888Z,54.33
2022-09-17T13:14:57.600Z,53.52
2022-09-17T13:18:12.395Z,53.60
2022-09-17T13:20:54.017Z,52.46
2022-09-17T13:23:40.579Z,53.23
2022-09-17T13:26:09.319Z,54.41
2022-09-17T13:28:50.127Z,54.53
2022-09-17T13:31:44.915Z,54.98
2022-09-17T13:34:17.663Z,55.54
2022-09-17T13:37:04.147Z,55.24
2022-09-17T13:39:36.948Z,55.41
2022-09-17T13:42:19.743Z,55.83
2022-09-17T13:44:52.097Z,55.14
2022-09-17T13:47:30.012Z,55.08
2022-09-17T13:50:07.854Z,53.97
2022-09-17T13:53:01.083Z,53.43
2022-09-17T13:55:36.029Z,52.09
2022-09-17T13:58:13.154Z,52.52
2022-09-17T14:01:07.958Z,53.02
2022-09-17T14:03:44.377Z,51.54
2022-09-17T14:06:11.402Z,52.08
2022-09-17T14:08:44.733Z,51.55
2022-09-17T14:11:32.617Z,52.01
2022-09-17T14:14:05.898Z,52.07
2022-09-17T14:16:47.978Z,51.97
2022-09-17T14:19:33.662Z,51.81
2022-09-17T14:22:00.807Z,52.48
2022-09-17T14:24:42.532Z,52.98
2022-09-17T14:27:18.678Z,53.08
2022-09-17T14:30:04.442Z,53.02
2022-09-17T14:32:54.070Z,53.10
2022-09-17T14:35:31.748Z,52.91
2022-09-17T14:38:04.055Z,51.58
2022-09-17T14:40:34.473Z,52.28
2022-09-17T14:43:03.233Z,52.49
2022-09-17T14:45:41.994Z,52.33
2022-09-17T14:48:33.487Z,51.26
2022-09-17T14:51:18.577Z,51.10
2022-09-17T14:54:06.478Z,50.61
2022-09-17T14:56:36.309Z,50.68
2022-09-17T14:59:03.135Z,51.00
2022-09-17T15:01:31.666Z,50.96
2022-09-17T15:04:14.062Z,50.56
2022-09-17T15:06:41.922Z,50.81
2022-09-17T15:09:35.615Z,50.92
2022-09-17T15:12:04.979Z,50.69
2022-09-17T15:14:40.496Z,49.47
2022-09-17T15:17:14.131Z,47.32
2022-09-17T15:19:44.979Z,46.48
2022-09-17T15:22:37.969Z,45.03
2022-09-17T15:25:23.897Z,43.88
2022-09-17T15:27:54.924Z,44.17
2022-09-17T15:30:27.452Z,43.64
2022-09-17T15:32:54.261Z,43.47
2022-09-17T15:35:31.913Z,42.99
2022-09-17T15:38:24.439Z,42.92
2022-09-17T15:40:51.908Z,43.88
2022-09-17T15:43:29.800Z,43.88
2022-09-17T15:45:58.418Z,44.50
2022-09-17T15:48:28.162Z,44.60
2022-09-17T15:50:57.297Z,44.45
2022-09-17T15:53:26.110Z,44.19
2022-09-17T15:56:00.751Z,44.96
2022-09-17T15:58:34.780Z,45.19
2022-09-17T16:01:17.045Z,45.52
2022-09-17T16:03:43.790Z,45.75
2022-09-17T16:06:19.599Z,45.96
2022-09-17T16:08:53.532Z,46.10
2022-09-17T16:11:31.063Z,45.95
2022-09-17T16:14:00.384Z,46.41
2022-09-17T16:16:35.245Z,46.75
2022-09-17T16:19:02.500Z,46.66
2022-09-17T16:21:29.234Z,46.73
2022-09-17T16:23:58.203Z,46.59
2022-09-17T16:26:30.376Z,46.71
2022-09-17T16:28:59.589Z,46.59
2022-09-17T16:31:26.399Z,46.75
2022-09-17T16:33:55.290Z,46.70
2022-09-17T16:36:22.834Z,46.82
2022-09-17T16:38:49.687Z,47.55
2022-09-17T16:41:16.369Z,47.41
2022-09-17T16:43:43.275Z,48.16
2022-09-17T16:46:11.613Z,48.29
2022-09-17T16:48:38.869Z,48.52
2022-09-17T16:51:09.715Z,48.94
2022-09-17T16:53:36.530Z,48.85
2022-09-17T16:56:10.688Z,48.90
2022-09-17T16:58:38.006Z,48.87
2022-09-17T17:01:12.913Z,49.84
2022-09-17T17:03:40.021Z,49.97
2022-09-17T17:06:07.631Z,50.46
2022-09-17T17:08:34.637Z,50.62
2022-09-17T17:11:01.749Z,50.46
2022-09-17T17:13:28.939Z,50.54
2022-09-17T17:15:56.148Z,50.27
2022-09-17T17:18:24.571Z,51.19
2022-09-17T17:20:51.802Z,50.91
2022-09-17T17:23:18.489Z,50.83
2022-09-17T17:25:45.466Z,50.61
2022-09-17T17:28:12.303Z,50.47
2022-09-17T17:30:39.214Z,50.92
2022-09-17T17:33:06.052Z,50.59
2022-09-17T17:35:32.970Z,50.31
2022-09-17T17:37:59.671Z,50.40
2022-09-17T17:40:26.988Z,50.92
2022-09-17T17:42:53.791Z,50.73
2022-09-17T17:45:20.766Z,50.54
2022-09-17T17:47:47.725Z,50.52
2022-09-17T17:50:16.130Z,50.63
2022-09-17T17:52:48.027Z,50.51
2022-09-17T17:55:16.024Z,50.72
2022-09-17T17:57:42.737Z,50.63
2022-09-17T18:00:12.481Z,50.94
2022-09-17T18:02:40.210Z,50.76
2022-09-17T18:05:07.655Z,51.36
2022-09-17T18:07:34.563Z,51.49
2022-09-17T18:10:01.475Z,51.90
2022-09-17T18:12:28.250Z,51.69
2022-09-17T18:14:55.045Z,51.80
2022-09-17T18:17:22.279Z,51.83
2022-09-17T18:19:49.007Z,51.84
2022-09-17T18:22:16.101Z,51.56
2022-09-17T18:24:42.797Z,51.41
2022-09-17T18:27:09.741Z,51.56
2022-09-17T18:29:36.622Z,50.99
2022-09-17T18:32:03.452Z,51.20
2022-09-17T18:34:30.255Z,51.36
2022-09-17T18:36:57.193Z,51.74
2022-09-17T18:39:57.001Z,52.53
2022-09-17T18:42:11.398Z,53.36
2022-09-17T18:44:38.161Z,52.89
2022-09-17T18:47:05.053Z,53.20
2022-09-17T18:49:31.775Z,53.04
2022-09-17T18:51:58.668Z,52.52
2022-09-17T18:54:25.498Z,53.41
2022-09-17T18:56:52.209Z,53.07
2022-09-17T18:59:18.925Z,53.41
2022-09-17T19:01:45.921Z,53.77
2022-09-17T19:04:13.016Z,53.73
2022-09-17T19:06:40.048Z,53.69
2022-09-17T19:09:06.940Z,54.24
2022-09-17T19:11:36.988Z,53.94
2022-09-17T19:14:04.218Z,54.47
2022-09-17T19:16:31.033Z,54.99
2022-09-17T19:18:57.957Z,56.29
2022-09-17T19:21:24.828Z,56.28
2022-09-17T19:23:52.852Z,58.71
2022-09-17T19:26:24.757Z,61.39
2022-09-17T19:28:53.224Z,61.84
2022-09-17T19:31:20.258Z,62.04
2022-09-17T19:33:48.243Z,62.74
2022-09-17T19:36:17.476Z,62.24
2022-09-17T19:38:46.188Z,61.78
2022-09-17T19:41:19.173Z,62.17
2022-09-17T19:43:47.371Z,61.81
2022-09-17T19:46:18.410Z,61.44
2022-09-17T19:48:56.007Z,61.35
2022-09-17T19:51:24.937Z,61.43
2022-09-17T19:53:52.770Z,60.78
2022-09-17T19:56:22.338Z,61.23
2022-09-17T19:58:49.409Z,60.61
2022-09-17T20:01:16.678Z,61.21
2022-09-17T20:03:45.575Z,61.17
2022-09-17T20:06:14.946Z,60.78
2022-09-17T20:08:49.422Z,60.46
2022-09-17T20:11:17.944Z,60.23
2022-09-17T20:13:44.918Z,60.31
2022-09-17T20:16:15.862Z,60.47
2022-09-17T20:18:44.225Z,59.98
2022-09-17T20:21:13.362Z,60.03
2022-09-17T20:23:40.514Z,61.25
2022-09-17T20:26:07.669Z,61.79
2022-09-17T20:28:34.992Z,62.36
2022-09-17T20:31:02.821Z,63.21
2022-09-17T20:33:29.935Z,62.71
2022-09-17T20:36:01.939Z,62.75
2022-09-17T20:39:10.693Z,62.97
2022-09-17T20:41:17.352Z,62.73
2022-09-17T20:43:46.797Z,62.31
2022-09-17T20:46:14.055Z,62.29
2022-09-17T20:48:41.532Z,62.84
2022-09-17T20:51:11.752Z,63.38
2022-09-17T20:53:39.282Z,64.15
2022-09-17T20:56:06.343Z,65.39
2022-09-17T20:58:35.268Z,65.90
2022-09-17T21:01:13.613Z,66.83
2022-09-17T21:03:41.491Z,66.73
2022-09-17T21:06:16.232Z,66.43
2022-09-17T21:08:43.248Z,67.00
2022-09-17T21:11:10.348Z,67.67
2022-09-17T21:13:37.242Z,69.91
2022-09-17T21:16:04.702Z,70.81
2022-09-17T21:18:34.177Z,70.92
2022-09-17T21:21:08.867Z,71.22
2022-09-17T21:23:37.161Z,71.87
2022-09-17T21:26:11.675Z,72.11
2022-09-17T21:28:38.927Z,72.00
2022-09-17T21:31:14.368Z,72.00
2022-09-17T21:33:42.361Z,71.48
2022-09-17T21:36:11.997Z,71.46
2022-09-17T21:38:39.477Z,71.58
2022-09-17T21:41:12.418Z,71.74
2022-09-17T21:43:40.192Z,71.83
2022-09-17T21:46:13.218Z,72.63
2022-09-17T21:49:02.915Z,72.81
2022-09-17T21:51:34.188Z,73.75
2022-09-17T21:54:03.897Z,73.90
2022-09-17T21:56:31.851Z,74.26
2022-09-17T21:59:04.020Z,74.99
2022-09-17T22:01:36.150Z,75.36
2022-09-17T22:04:02.905Z,75.63
2022-09-17T22:06:31.853Z,75.75
2022-09-17T22:09:00.641Z,76.06
2022-09-17T22:11:31.055Z,76.52
2022-09-17T22:14:05.300Z,76.63
2022-09-17T22:16:33.634Z,76.23
2022-09-17T22:19:02.766Z,76.87
2022-09-17T22:21:32.805Z,76.44
2022-09-17T22:24:02.122Z,77.04
2022-09-17T22:26:32.014Z,77.29
2022-09-17T22:29:08.411Z,77.31
2022-09-17T22:31:35.906Z,76.74
2022-09-17T22:34:10.826Z,77.49
2022-09-17T22:36:38.015Z,78.14
2022-09-17T22:39:05.867Z,78.88
2022-09-17T22:41:39.267Z,78.97
2022-09-17T22:44:07.757Z,77.36
2022-09-17T22:46:39.489Z,78.52
2022-09-17T22:49:07.708Z,79.44
2022-09-17T22:51:34.707Z,79.49
2022-09-17T22:54:01.656Z,79.59
2022-09-17T22:56:29.350Z,79.71
2022-09-17T22:58:57.774Z,79.02
2022-09-17T23:01:33.975Z,79.21
2022-09-17T23:04:05.452Z,80.38
2022-09-17T23:06:35.614Z,80.09
2022-09-17T23:09:05.571Z,80.41
2022-09-17T23:11:34.827Z,80.27
2022-09-17T23:14:05.391Z,80.31
2022-09-17T23:16:37.630Z,80.78
2022-09-17T23:19:04.498Z,80.57
2022-09-17T23:21:31.527Z,80.33
2022-09-17T23:23:58.564Z,80.59
2022-09-17T23:26:26.664Z,80.87
2022-09-17T23:28:53.912Z,80.46
2022-09-17T23:31:24.942Z,80.79
2022-09-17T23:33:55.526Z,80.69
2022-09-17T23:36:28.415Z,80.93
2022-09-17T23:38:57.285Z,80.21
2022-09-17T23:41:26.743Z,79.35
2022-09-17T23:44:01.269Z,79.78
2022-09-17T23:46:32.402Z,80.05
2022-09-17T23:48:59.989Z,80.32
2022-09-17T23:51:30.850Z,80.42
2022-09-17T23:53:58.724Z,81.18
2022-09-17T23:56:27.463Z,81.99
2022-09-17T23:58:55.753Z,82.46
